Time;durP1;ratioP1;P1;durP2;ratioP2;P2;SDS_P1;SDS_P2;PMS_P1;PMS_P2;Temp;Humidity;BMP_temperature;BMP_pressure;BME280_temperature;BME280_humidity;BME280_pressure;Samples;Min_cycle;Max_cycle;Signal;HPM_P1;HPM_P2
2022/10/17 00:00:55;;;;;;;12.40;11.20;;;;;;;;;;5074176;28;20443;-68
2022/10/17 00:03:23;;;;;;;14.20;12.43;;;;;;;;;;5074426;28;20445;-68
2022/10/17 00:05:50;;;;;;;12.23;11.13;;;;;;;;;;5072913;28;20548;-68
2022/10/17 00:08:18;;;;;;;13.23;11.90;;;;;;;;;;5074029;28;20810;-68
2022/10/17 00:10:45;;;;;;;13.87;11.77;;;;;;;;;;5073512;28;20547;-67
2022/10/17 00:13:13;;;;;;;12.00;11.00;;;;;;;;;;5073758;28;20537;-68
2022/10/17 00:15:44;;;;;;;11.73;10.43;;;;;;;;;;5074334;28;20809;-67
2022/10/17 00:18:11;;;;;;;13.10;11.80;;;;;;;;;;5073461;28;20435;-69
2022/10/17 00:20:38;;;;;;;12.50;11.40;;;;;;;;;;5073444;28;20458;-68
2022/10/17 00:23:05;;;;;;;14.10;12.70;;;;;;;;;;5073656;28;20806;-68
2022/10/17 00:25:32;;;;;;;15.40;12.93;;;;;;;;;;5073272;28;20471;-69
2022/10/17 00:27:59;;;;;;;17.13;12.77;;;;;;;;;;5073374;28;20456;-67
2022/10/17 00:30:28;;;;;;;13.80;12.50;;;;;;;;;;5073533;28;20829;-68
2022/10/17 00:32:55;;;;;;;15.03;12.03;;;;;;;;;;5073654;28;20456;-68
2022/10/17 00:35:22;;;;;;;13.73;12.33;;;;;;;;;;5073808;28;20460;-68
2022/10/17 00:37:50;;;;;;;20.23;14.03;;;;;;;;;;5073630;28;20443;-68
2022/10/17 00:40:17;;;;;;;15.43;13.83;;;;;;;;;;5073126;28;20451;-68
2022/10/17 00:42:44;;;;;;;14.27;12.90;;;;;;;;;;5073425;28;20432;-68
2022/10/17 00:45:16;;;;;;;14.63;13.00;;;;;;;;;;5073407;28;20802;-68
2022/10/17 00:47:47;;;;;;;17.17;12.77;;;;;;;;;;5073462;28;20524;-67
2022/10/17 00:50:15;;;;;;;13.37;12.17;;;;;;;;;;5073439;28;20536;-68
2022/10/17 00:52:43;;;;;;;13.90;12.50;;;;;;;;;;5073514;28;20781;-68
2022/10/17 00:55:12;;;;;;;13.50;12.17;;;;;;;;;;5073317;28;20794;-67
2022/10/17 00:57:40;;;;;;;15.70;13.47;;;;;;;;;;5073361;28;20445;-67
2022/10/17 01:00:08;;;;;;;14.03;12.27;;;;;;;;;;5072931;28;20950;-67
2022/10/17 01:02:36;;;;;;;13.43;12.13;;;;;;;;;;5072980;28;20940;-67
2022/10/17 01:05:05;;;;;;;16.67;13.43;;;;;;;;;;5073092;28;20474;-68
2022/10/17 01:07:32;;;;;;;17.57;13.60;;;;;;;;;;5073247;28;20441;-68
2022/10/17 01:09:59;;;;;;;15.23;13.67;;;;;;;;;;5072817;28;20478;-68
2022/10/17 01:12:28;;;;;;;15.73;14.23;;;;;;;;;;5073194;28;20453;-68
2022/10/17 01:15:03;;;;;;;14.37;13.00;;;;;;;;;;5072826;28;20453;-67
2022/10/17 01:17:36;;;;;;;20.30;12.87;;;;;;;;;;5075869;28;20928;-67
2022/10/17 01:20:19;;;;;;;15.17;13.10;;;;;;;;;;5076863;28;20461;-67
2022/10/17 01:22:48;;;;;;;14.80;13.00;;;;;;;;;;5077293;28;20446;-67
2022/10/17 01:25:23;;;;;;;18.83;12.77;;;;;;;;;;5076558;28;20465;-67
2022/10/17 01:27:55;;;;;;;15.03;12.97;;;;;;;;;;5077345;28;20795;-67
2022/10/17 01:30:46;;;;;;;19.30;13.80;;;;;;;;;;5076978;28;20465;-68
2022/10/17 01:33:14;;;;;;;14.30;12.37;;;;;;;;;;5077080;28;20435;-67
2022/10/17 01:35:44;;;;;;;14.97;12.70;;;;;;;;;;5076934;28;20445;-68
2022/10/17 01:38:12;;;;;;;13.27;11.73;;;;;;;;;;5077282;28;20837;-68
2022/10/17 01:40:43;;;;;;;13.80;12.40;;;;;;;;;;5076636;28;20812;-67
2022/10/17 01:43:14;;;;;;;15.83;13.20;;;;;;;;;;5077263;28;20449;-67
2022/10/17 01:45:43;;;;;;;13.23;11.83;;;;;;;;;;5076647;28;20434;-67
2022/10/17 01:48:14;;;;;;;15.70;13.60;;;;;;;;;;5077441;28;20440;-67
2022/10/17 01:50:43;;;;;;;19.30;13.87;;;;;;;;;;5076432;28;20473;-67
2022/10/17 01:53:13;;;;;;;14.80;12.77;;;;;;;;;;5076571;28;20802;-67
2022/10/17 01:55:41;;;;;;;18.73;13.10;;;;;;;;;;5076580;28;20492;-67
2022/10/17 01:58:11;;;;;;;15.83;13.30;;;;;;;;;;5076130;28;20436;-67
2022/10/17 02:00:39;;;;;;;16.10;14.40;;;;;;;;;;5076355;28;20456;-68
2022/10/17 02:03:08;;;;;;;21.60;13.53;;;;;;;;;;5076273;28;20452;-67
2022/10/17 02:05:38;;;;;;;16.57;14.73;;;;;;;;;;5076038;28;20455;-67
2022/10/17 02:08:06;;;;;;;14.50;13.10;;;;;;;;;;5075999;28;20435;-67
2022/10/17 02:10:37;;;;;;;15.80;13.40;;;;;;;;;;5076085;28;20485;-67
2022/10/17 02:13:07;;;;;;;13.87;12.20;;;;;;;;;;5076509;28;20446;-68
2022/10/17 02:15:42;;;;;;;14.57;13.00;;;;;;;;;;5076393;28;20425;-67
2022/10/17 02:18:16;;;;;;;15.90;12.40;;;;;;;;;;5076439;28;20794;-67
2022/10/17 02:20:49;;;;;;;16.27;12.30;;;;;;;;;;5075627;28;20908;-68
2022/10/17 02:23:20;;;;;;;13.63;12.23;;;;;;;;;;5075972;28;20447;-67
2022/10/17 02:25:52;;;;;;;13.50;12.10;;;;;;;;;;5076363;28;20436;-68
2022/10/17 02:28:21;;;;;;;13.63;12.33;;;;;;;;;;5074597;28;20440;-67
2022/10/17 02:30:52;;;;;;;14.77;13.10;;;;;;;;;;5074443;28;20553;-67
2022/10/17 02:33:21;;;;;;;16.10;13.90;;;;;;;;;;5076102;28;20435;-67
2022/10/17 02:35:53;;;;;;;16.27;14.57;;;;;;;;;;5075998;28;20446;-68
2022/10/17 02:38:21;;;;;;;15.13;13.57;;;;;;;;;;5075442;28;20438;-68
2022/10/17 02:40:50;;;;;;;15.40;12.63;;;;;;;;;;5075226;28;20451;-68
2022/10/17 02:43:17;;;;;;;14.13;12.73;;;;;;;;;;5075532;28;20441;-68
2022/10/17 02:45:44;;;;;;;14.00;12.60;;;;;;;;;;5075126;28;20441;-68
2022/10/17 02:48:15;;;;;;;15.13;12.80;;;;;;;;;;5075516;28;20534;-68
2022/10/17 02:50:47;;;;;;;14.23;12.93;;;;;;;;;;5075754;28;20477;-68
2022/10/17 02:53:18;;;;;;;15.50;12.83;;;;;;;;;;5075126;28;20434;-67
2022/10/17 02:55:49;;;;;;;17.67;13.10;;;;;;;;;;5075834;28;20441;-68
2022/10/17 02:58:19;;;;;;;15.17;12.03;;;;;;;;;;5075580;28;20516;-67
2022/10/17 03:00:46;;;;;;;16.13;14.10;;;;;;;;;;5075715;28;20454;-68
2022/10/17 03:03:21;;;;;;;16.97;13.43;;;;;;;;;;5074889;28;20452;-67
2022/10/17 03:05:48;;;;;;;19.53;13.23;;;;;;;;;;5074803;28;20453;-68
2022/10/17 03:08:16;;;;;;;23.07;13.30;;;;;;;;;;5075024;28;20881;-68
2022/10/17 03:10:44;;;;;;;15.07;13.00;;;;;;;;;;5074880;28;20485;-68
2022/10/17 03:13:11;;;;;;;14.83;12.10;;;;;;;;;;5075110;28;20443;-68
2022/10/17 03:15:38;;;;;;;14.03;11.83;;;;;;;;;;5074671;28;20439;-68
2022/10/17 03:18:05;;;;;;;15.50;13.90;;;;;;;;;;5074548;28;20446;-67
2022/10/17 03:20:32;;;;;;;14.40;13.00;;;;;;;;;;5074381;28;20462;-68
2022/10/17 03:23:00;;;;;;;15.10;13.10;;;;;;;;;;5075150;28;20446;-67
2022/10/17 03:25:28;;;;;;;15.77;12.57;;;;;;;;;;5074769;28;20478;-68
2022/10/17 03:27:58;;;;;;;15.50;12.80;;;;;;;;;;5074604;28;20446;-68
2022/10/17 03:30:25;;;;;;;13.40;11.60;;;;;;;;;;5074970;28;20574;-68
2022/10/17 03:32:52;;;;;;;17.40;12.90;;;;;;;;;;5074494;28;20434;-68
2022/10/17 03:35:19;;;;;;;14.67;12.27;;;;;;;;;;5074892;28;20448;-68
2022/10/17 03:37:46;;;;;;;18.40;12.87;;;;;;;;;;5074077;28;20440;-67
2022/10/17 03:40:14;;;;;;;14.87;12.60;;;;;;;;;;5073954;28;20963;-68
2022/10/17 03:42:42;;;;;;;13.90;12.10;;;;;;;;;;5074043;28;20438;-68
2022/10/17 03:45:10;;;;;;;14.50;12.07;;;;;;;;;;5074800;28;20446;-68
2022/10/17 03:47:37;;;;;;;16.60;12.50;;;;;;;;;;5074183;28;20457;-67
2022/10/17 03:50:04;;;;;;;17.10;11.63;;;;;;;;;;5074684;28;20481;-68
2022/10/17 03:52:32;;;;;;;16.60;13.20;;;;;;;;;;5074089;28;20439;-67
2022/10/17 03:54:59;;;;;;;17.80;13.07;;;;;;;;;;5074082;28;20446;-67
2022/10/17 03:57:26;;;;;;;15.23;12.60;;;;;;;;;;5073904;28;20453;-68
2022/10/17 03:59:54;;;;;;;19.90;13.17;;;;;;;;;;5073948;28;20453;-67
2022/10/17 04:02:22;;;;;;;18.93;13.13;;;;;;;;;;5071901;28;20446;-68
2022/10/17 04:04:49;;;;;;;16.90;13.23;;;;;;;;;;5072819;28;20961;-68
2022/10/17 04:07:16;;;;;;;22.70;14.10;;;;;;;;;;5073410;28;20450;-68
2022/10/17 04:09:43;;;;;;;15.40;12.63;;;;;;;;;;5073088;28;20444;-68
2022/10/17 04:12:13;;;;;;;14.60;12.30;;;;;;;;;;5073229;28;20438;-68
2022/10/17 04:14:40;;;;;;;15.50;13.10;;;;;;;;;;5073234;28;20452;-68
2022/10/17 04:17:08;;;;;;;22.83;17.63;;;;;;;;;;5072912;28;20445;-68
2022/10/17 04:19:36;;;;;;;23.23;15.53;;;;;;;;;;5073246;28;20806;-68
2022/10/17 04:22:03;;;;;;;22.23;16.70;;;;;;;;;;5073541;28;20446;-67
2022/10/17 04:24:31;;;;;;;21.60;16.77;;;;;;;;;;5073900;28;20486;-67
2022/10/17 04:26:58;;;;;;;22.63;18.13;;;;;;;;;;5073396;28;20449;-67
2022/10/17 04:29:25;;;;;;;17.17;14.37;;;;;;;;;;5073533;28;20446;-67
2022/10/17 04:31:54;;;;;;;19.10;13.93;;;;;;;;;;5073371;28;20475;-67
2022/10/17 04:34:23;;;;;;;21.10;14.57;;;;;;;;;;5072915;28;20443;-67
2022/10/17 04:36:50;;;;;;;17.23;15.23;;;;;;;;;;5073380;28;20560;-67
2022/10/17 04:39:18;;;;;;;23.17;14.33;;;;;;;;;;5073066;28;20479;-67
2022/10/17 04:41:45;;;;;;;18.07;13.90;;;;;;;;;;5073362;28;20454;-67
2022/10/17 04:44:12;;;;;;;17.13;13.07;;;;;;;;;;5073136;28;20451;-67
2022/10/17 04:46:39;;;;;;;17.13;15.10;;;;;;;;;;5073222;28;20449;-67
2022/10/17 04:49:07;;;;;;;19.70;14.50;;;;;;;;;;5073583;28;20443;-67
2022/10/17 04:51:36;;;;;;;16.93;13.50;;;;;;;;;;5073060;28;20478;-68
2022/10/17 04:54:03;;;;;;;20.93;16.30;;;;;;;;;;5073069;28;20819;-67
2022/10/17 04:56:30;;;;;;;18.80;15.33;;;;;;;;;;5073111;28;20441;-68
2022/10/17 04:58:58;;;;;;;23.13;15.23;;;;;;;;;;5073077;28;20449;-68
2022/10/17 05:01:26;;;;;;;20.83;13.67;;;;;;;;;;5071958;28;20502;-67
2022/10/17 05:03:54;;;;;;;30.80;14.33;;;;;;;;;;5071560;28;20450;-67
2022/10/17 05:06:23;;;;;;;19.43;12.67;;;;;;;;;;5071886;28;20451;-68
2022/10/17 05:08:51;;;;;;;21.50;13.40;;;;;;;;;;5072837;28;20803;-67
2022/10/17 05:11:19;;;;;;;20.73;12.60;;;;;;;;;;5073218;28;20481;-68
2022/10/17 05:13:50;;;;;;;16.53;13.27;;;;;;;;;;5073081;28;20442;-68
2022/10/17 05:16:18;;;;;;;20.03;12.80;;;;;;;;;;5073220;28;20496;-67
2022/10/17 05:18:45;;;;;;;27.87;13.60;;;;;;;;;;5072664;28;20453;-67
2022/10/17 05:21:12;;;;;;;21.30;13.50;;;;;;;;;;5073157;28;20508;-67
2022/10/17 05:23:40;;;;;;;23.17;13.90;;;;;;;;;;5072694;28;20439;-67
2022/10/17 05:26:08;;;;;;;23.73;14.17;;;;;;;;;;5073569;28;20440;-67
2022/10/17 05:28:35;;;;;;;23.30;13.83;;;;;;;;;;5073007;28;20438;-67
2022/10/17 05:31:03;;;;;;;27.17;14.27;;;;;;;;;;5072573;28;20481;-67
2022/10/17 05:33:30;;;;;;;22.53;13.50;;;;;;;;;;5072870;28;20446;-67
2022/10/17 05:35:58;;;;;;;19.60;13.80;;;;;;;;;;5073127;28;20446;-67
2022/10/17 05:38:25;;;;;;;17.83;13.77;;;;;;;;;;5072897;28;20777;-68
2022/10/17 05:40:52;;;;;;;25.77;13.13;;;;;;;;;;5072964;28;20445;-68
2022/10/17 05:43:21;;;;;;;19.40;15.10;;;;;;;;;;5072845;28;20447;-68
2022/10/17 05:45:48;;;;;;;21.13;17.13;;;;;;;;;;5072864;28;20452;-68
2022/10/17 05:48:15;;;;;;;39.43;33.60;;;;;;;;;;5072754;28;20443;-68
2022/10/17 05:50:43;;;;;;;30.40;14.87;;;;;;;;;;5072740;28;20491;-68
2022/10/17 05:53:10;;;;;;;24.43;16.53;;;;;;;;;;5072719;28;20452;-68
2022/10/17 05:55:38;;;;;;;25.53;15.50;;;;;;;;;;5072556;28;20940;-67
2022/10/17 05:58:05;;;;;;;29.43;16.80;;;;;;;;;;5072313;28;20931;-68
2022/10/17 06:00:34;;;;;;;23.57;14.97;;;;;;;;;;5072862;28;20445;-68
2022/10/17 06:03:01;;;;;;;19.60;13.90;;;;;;;;;;5072401;28;20958;-67
2022/10/17 06:05:28;;;;;;;19.30;14.77;;;;;;;;;;5076312;28;20815;-67
2022/10/17 06:07:55;;;;;;;22.13;18.83;;;;;;;;;;5076088;28;20434;-67
2022/10/17 06:10:23;;;;;;;29.13;16.07;;;;;;;;;;5076050;28;20450;-67
2022/10/17 06:12:50;;;;;;;18.00;15.10;;;;;;;;;;5075722;28;20504;-68
2022/10/17 06:15:17;;;;;;;16.90;14.57;;;;;;;;;;5076055;28;20919;-67
2022/10/17 06:17:46;;;;;;;22.90;14.77;;;;;;;;;;5075985;28;20449;-67
2022/10/17 06:20:13;;;;;;;17.90;14.23;;;;;;;;;;5075550;28;20473;-68
2022/10/17 06:22:40;;;;;;;17.77;14.63;;;;;;;;;;5075595;28;20455;-67
2022/10/17 06:25:08;;;;;;;19.50;15.23;;;;;;;;;;5075405;28;20470;-67
2022/10/17 06:27:35;;;;;;;22.47;15.70;;;;;;;;;;5075785;28;20447;-67
2022/10/17 06:30:02;;;;;;;15.70;14.07;;;;;;;;;;5075829;28;20444;-67
2022/10/17 06:32:30;;;;;;;25.03;14.53;;;;;;;;;;5075877;28;20488;-67
2022/10/17 06:34:58;;;;;;;17.13;14.07;;;;;;;;;;5075522;28;20447;-67
2022/10/17 06:37:25;;;;;;;16.43;14.27;;;;;;;;;;5076107;28;20453;-67
2022/10/17 06:39:53;;;;;;;19.60;13.50;;;;;;;;;;5075756;28;20456;-66
2022/10/17 06:42:20;;;;;;;19.27;15.40;;;;;;;;;;5075565;28;20452;-66
2022/10/17 06:44:47;;;;;;;18.33;13.80;;;;;;;;;;5075111;28;20946;-67
2022/10/17 06:47:14;;;;;;;18.43;14.10;;;;;;;;;;5075845;28;20473;-67
2022/10/17 06:49:41;;;;;;;17.23;12.40;;;;;;;;;;5075379;28;20448;-67
2022/10/17 06:52:10;;;;;;;17.57;12.33;;;;;;;;;;5075014;28;20477;-67
2022/10/17 06:54:37;;;;;;;15.83;12.33;;;;;;;;;;5075272;28;20438;-68
2022/10/17 06:57:04;;;;;;;16.13;10.73;;;;;;;;;;5074895;28;20454;-69
2022/10/17 06:59:32;;;;;;;13.50;11.00;;;;;;;;;;5075272;28;20807;-67
2022/10/17 07:01:59;;;;;;;17.33;12.43;;;;;;;;;;5075522;28;20460;-66
2022/10/17 07:04:26;;;;;;;17.20;11.97;;;;;;;;;;5075396;28;20465;-66
2022/10/17 07:06:53;;;;;;;15.63;11.50;;;;;;;;;;5074713;28;20463;-67
2022/10/17 07:09:23;;;;;;;14.23;9.83;;;;;;;;;;5074981;28;20444;-66
2022/10/17 07:11:50;;;;;;;14.17;11.33;;;;;;;;;;5074539;28;20485;-67
2022/10/17 07:14:17;;;;;;;13.73;10.80;;;;;;;;;;5074097;28;20479;-68
2022/10/17 07:16:44;;;;;;;14.03;10.73;;;;;;;;;;5074866;28;20443;-67
2022/10/17 07:19:11;;;;;;;11.77;9.90;;;;;;;;;;5074783;28;20450;-67
2022/10/17 07:21:39;;;;;;;14.67;9.80;;;;;;;;;;5074819;28;20461;-67
2022/10/17 07:24:06;;;;;;;12.67;9.60;;;;;;;;;;5074631;28;20476;-67
2022/10/17 07:26:35;;;;;;;14.33;9.13;;;;;;;;;;5074404;28;20996;-69
2022/10/17 07:29:02;;;;;;;10.50;9.30;;;;;;;;;;5074197;28;20521;-67
2022/10/17 07:31:29;;;;;;;9.17;8.23;;;;;;;;;;5074151;28;20493;-66
2022/10/17 07:33:56;;;;;;;17.73;8.57;;;;;;;;;;5074403;28;20787;-67
2022/10/17 07:36:24;;;;;;;11.37;8.50;;;;;;;;;;5074645;28;20550;-67
2022/10/17 07:38:51;;;;;;;10.33;7.93;;;;;;;;;;5074063;28;20445;-67
2022/10/17 07:41:19;;;;;;;10.23;7.87;;;;;;;;;;5073993;28;20952;-67
2022/10/17 07:43:48;;;;;;;10.23;9.27;;;;;;;;;;5073969;28;20478;-67
2022/10/17 07:46:15;;;;;;;8.90;7.20;;;;;;;;;;5073789;28;20448;-67
2022/10/17 07:48:42;;;;;;;8.33;6.90;;;;;;;;;;5074613;28;20804;-67
2022/10/17 07:51:10;;;;;;;15.13;9.80;;;;;;;;;;5074042;28;20453;-67
2022/10/17 07:53:38;;;;;;;8.87;7.97;;;;;;;;;;5074078;28;20443;-67
2022/10/17 07:56:06;;;;;;;13.13;7.97;;;;;;;;;;5073968;28;20515;-67
2022/10/17 07:58:33;;;;;;;9.80;8.40;;;;;;;;;;5074061;28;20449;-67
2022/10/17 08:01:02;;;;;;;8.90;8.10;;;;;;;;;;5072633;28;20936;-67
2022/10/17 08:03:30;;;;;;;9.50;7.60;;;;;;;;;;5073304;28;20800;-67
2022/10/17 08:06:01;;;;;;;12.67;7.23;;;;;;;;;;5073013;28;20443;-67
2022/10/17 08:08:28;;;;;;;7.87;7.07;;;;;;;;;;5073760;28;20447;-67
2022/10/17 08:10:55;;;;;;;9.70;6.93;;;;;;;;;;5073541;28;20468;-67
2022/10/17 08:13:23;;;;;;;9.80;6.53;;;;;;;;;;5073348;28;20487;-67
2022/10/17 08:15:50;;;;;;;13.43;8.83;;;;;;;;;;5073680;28;20798;-67
2022/10/17 08:18:19;;;;;;;9.27;8.37;;;;;;;;;;5074118;28;20800;-67
2022/10/17 08:20:47;;;;;;;15.93;7.17;;;;;;;;;;5073347;28;20991;-67
2022/10/17 08:23:14;;;;;;;9.37;8.57;;;;;;;;;;5073691;28;20450;-67
2022/10/17 08:25:41;;;;;;;14.10;6.90;;;;;;;;;;5073285;28;20471;-67
2022/10/17 08:28:09;;;;;;;15.20;8.17;;;;;;;;;;5073138;28;20490;-67
2022/10/17 08:30:36;;;;;;;11.90;8.00;;;;;;;;;;5073175;28;20452;-67
2022/10/17 08:33:03;;;;;;;9.00;6.80;;;;;;;;;;5073163;28;20479;-67
2022/10/17 08:35:32;;;;;;;9.70;8.13;;;;;;;;;;5073393;28;20459;-67
2022/10/17 08:38:00;;;;;;;11.80;7.40;;;;;;;;;;5073378;28;20925;-67
2022/10/17 08:40:29;;;;;;;9.53;7.70;;;;;;;;;;5073036;28;20499;-67
2022/10/17 08:43:06;;;;;;;8.37;7.43;;;;;;;;;;5073705;28;20506;-67
2022/10/17 08:45:35;;;;;;;7.40;6.60;;;;;;;;;;5073796;28;20789;-67
2022/10/17 08:48:05;;;;;;;9.40;6.80;;;;;;;;;;5073376;28;20439;-67
2022/10/17 08:50:36;;;;;;;6.30;5.33;;;;;;;;;;5073303;28;20512;-67
2022/10/17 08:53:07;;;;;;;7.30;5.70;;;;;;;;;;5073323;28;20477;-67
2022/10/17 08:55:36;;;;;;;10.50;6.77;;;;;;;;;;5073730;28;20427;-68
2022/10/17 08:58:03;;;;;;;6.90;6.27;;;;;;;;;;5073660;28;20454;-67
2022/10/17 09:00:32;;;;;;;11.30;7.57;;;;;;;;;;5073386;28;20471;-67
2022/10/17 09:03:14;;;;;;;6.63;5.77;;;;;;;;;;5073228;28;20448;-67
2022/10/17 09:05:48;;;;;;;6.13;5.53;;;;;;;;;;5073273;28;20459;-67
2022/10/17 09:08:24;;;;;;;6.27;5.77;;;;;;;;;;5073683;28;20513;-67
2022/10/17 09:10:55;;;;;;;8.80;5.80;;;;;;;;;;5073529;28;20785;-67
2022/10/17 09:13:32;;;;;;;5.83;4.80;;;;;;;;;;5072872;28;20467;-67
2022/10/17 09:16:20;;;;;;;8.23;5.60;;;;;;;;;;5073163;28;20434;-67
2022/10/17 09:18:51;;;;;;;7.30;5.70;;;;;;;;;;5068171;28;20956;-68
2022/10/17 09:21:21;;;;;;;7.33;5.33;;;;;;;;;;5073033;28;20445;-67
2022/10/17 09:23:51;;;;;;;5.40;5.00;;;;;;;;;;5072955;28;20485;-68
2022/10/17 09:26:18;;;;;;;5.23;4.70;;;;;;;;;;5073540;28;20526;-68
2022/10/17 09:28:47;;;;;;;9.77;5.10;;;;;;;;;;5073134;28;20479;-68
2022/10/17 09:31:17;;;;;;;7.00;5.67;;;;;;;;;;5072927;28;20453;-68
2022/10/17 09:33:45;;;;;;;5.47;4.77;;;;;;;;;;5072634;28;20468;-67
2022/10/17 09:36:15;;;;;;;11.30;5.00;;;;;;;;;;5072990;28;20538;-67
2022/10/17 09:38:45;;;;;;;10.27;5.57;;;;;;;;;;5075826;28;20444;-67
2022/10/17 09:41:16;;;;;;;5.20;4.70;;;;;;;;;;5076284;28;20453;-67
2022/10/17 09:43:44;;;;;;;6.47;4.60;;;;;;;;;;5076942;28;20431;-67
2022/10/17 09:46:14;;;;;;;7.27;5.13;;;;;;;;;;5076470;28;20856;-67
2022/10/17 09:48:45;;;;;;;6.53;4.77;;;;;;;;;;5076626;28;20439;-67
2022/10/17 09:51:13;;;;;;;6.20;5.20;;;;;;;;;;5076048;28;20446;-67
2022/10/17 09:53:41;;;;;;;8.80;5.37;;;;;;;;;;5076339;28;20654;-67
2022/10/17 09:56:12;;;;;;;7.97;4.97;;;;;;;;;;5076038;28;20518;-67
2022/10/17 09:58:42;;;;;;;8.30;5.20;;;;;;;;;;5076222;28;20438;-67
2022/10/17 10:01:17;;;;;;;6.27;4.97;;;;;;;;;;5075950;28;20945;-67
2022/10/17 10:03:44;;;;;;;11.23;5.67;;;;;;;;;;5076218;28;20440;-67
2022/10/17 10:06:14;;;;;;;9.43;5.50;;;;;;;;;;5076278;28;20455;-67
2022/10/17 10:08:49;;;;;;;5.80;5.00;;;;;;;;;;5076239;28;20447;-66
2022/10/17 10:11:18;;;;;;;5.83;4.87;;;;;;;;;;5076305;28;20459;-67
2022/10/17 10:13:47;;;;;;;9.43;5.37;;;;;;;;;;5076029;28;20482;-67
2022/10/17 10:16:16;;;;;;;8.43;5.57;;;;;;;;;;5075674;28;20959;-67
2022/10/17 10:18:43;;;;;;;7.80;5.50;;;;;;;;;;5076369;28;20809;-67
2022/10/17 10:21:12;;;;;;;6.23;5.27;;;;;;;;;;5076127;28;20454;-67
2022/10/17 10:23:40;;;;;;;6.97;5.40;;;;;;;;;;5075757;28;20451;-67
2022/10/17 10:26:15;;;;;;;10.10;6.17;;;;;;;;;;5075677;28;20937;-67
2022/10/17 10:28:51;;;;;;;5.17;4.57;;;;;;;;;;5075847;28;20435;-68
2022/10/17 10:31:26;;;;;;;10.30;5.40;;;;;;;;;;5075919;28;20435;-67
2022/10/17 10:33:53;;;;;;;10.13;5.00;;;;;;;;;;5075649;28;20482;-67
2022/10/17 10:36:21;;;;;;;5.90;4.70;;;;;;;;;;5075197;28;20463;-67
2022/10/17 10:38:52;;;;;;;6.43;5.33;;;;;;;;;;5075322;28;20444;-67
2022/10/17 10:41:20;;;;;;;10.80;4.57;;;;;;;;;;5075374;28;20425;-67
2022/10/17 10:43:50;;;;;;;10.00;4.87;;;;;;;;;;5075480;28;20509;-66
2022/10/17 10:46:19;;;;;;;7.00;4.70;;;;;;;;;;5075193;28;20457;-67
2022/10/17 10:48:53;;;;;;;6.87;4.70;;;;;;;;;;5074347;28;20952;-68
2022/10/17 10:51:23;;;;;;;5.60;5.00;;;;;;;;;;5075453;28;20565;-67
2022/10/17 10:53:53;;;;;;;16.57;4.60;;;;;;;;;;5075246;28;20482;-67
2022/10/17 10:56:21;;;;;;;5.40;5.00;;;;;;;;;;5075366;28;20451;-67
2022/10/17 10:58:53;;;;;;;6.90;4.77;;;;;;;;;;5074809;28;20955;-68
2022/10/17 11:01:23;;;;;;;5.53;5.00;;;;;;;;;;5075097;28;20413;-67
2022/10/17 11:04:11;;;;;;;5.40;4.77;;;;;;;;;;5074735;28;20451;-67
2022/10/17 11:06:40;;;;;;;8.73;4.70;;;;;;;;;;5069952;28;20463;-67
2022/10/17 11:09:14;;;;;;;7.57;3.90;;;;;;;;;;5074984;28;20528;-67
2022/10/17 11:11:44;;;;;;;7.60;4.80;;;;;;;;;;5074692;28;20905;-67
2022/10/17 11:14:15;;;;;;;5.17;4.60;;;;;;;;;;5074820;28;20487;-67
2022/10/17 11:16:45;;;;;;;5.83;5.10;;;;;;;;;;5075279;28;20429;-68
2022/10/17 11:19:15;;;;;;;6.33;5.70;;;;;;;;;;5074469;28;20545;-67
2022/10/17 11:21:45;;;;;;;5.90;4.90;;;;;;;;;;5075385;28;20869;-67
2022/10/17 11:24:16;;;;;;;6.50;5.20;;;;;;;;;;5074321;28;20475;-67
2022/10/17 11:26:45;;;;;;;5.50;4.97;;;;;;;;;;5074968;28;20452;-67
2022/10/17 11:29:14;;;;;;;6.50;5.27;;;;;;;;;;5074582;28;20439;-68
2022/10/17 11:31:46;;;;;;;10.13;5.30;;;;;;;;;;5074636;28;20447;-67
2022/10/17 11:34:18;;;;;;;8.83;5.20;;;;;;;;;;5074524;28;20469;-68
2022/10/17 11:36:46;;;;;;;5.40;4.47;;;;;;;;;;5074640;28;20448;-68
2022/10/17 11:39:17;;;;;;;8.03;4.70;;;;;;;;;;5073961;28;20447;-68
2022/10/17 11:41:47;;;;;;;7.20;5.00;;;;;;;;;;5074485;28;20433;-68
2022/10/17 11:44:20;;;;;;;6.83;5.43;;;;;;;;;;5074196;28;20444;-68
2022/10/17 11:46:50;;;;;;;6.70;5.60;;;;;;;;;;5074295;28;20443;-67
2022/10/17 11:49:19;;;;;;;9.00;6.07;;;;;;;;;;5073996;28;20448;-68
2022/10/17 11:51:48;;;;;;;11.97;5.30;;;;;;;;;;5074002;28;20453;-68
2022/10/17 11:54:18;;;;;;;10.27;5.43;;;;;;;;;;5074572;28;20476;-67
2022/10/17 11:56:51;;;;;;;9.90;5.13;;;;;;;;;;5073864;28;20447;-67
2022/10/17 11:59:33;;;;;;;6.27;4.80;;;;;;;;;;5074591;28;20438;-68
2022/10/17 12:02:05;;;;;;;4.97;4.40;;;;;;;;;;5071939;28;20462;-68
2022/10/17 12:04:41;;;;;;;6.50;5.40;;;;;;;;;;5074548;28;20440;-67
2022/10/17 12:07:11;;;;;;;5.77;5.00;;;;;;;;;;5074941;28;20452;-67
2022/10/17 12:09:41;;;;;;;8.00;5.70;;;;;;;;;;5074394;28;20437;-67
2022/10/17 12:12:08;;;;;;;5.40;4.90;;;;;;;;;;5073797;28;20991;-66
2022/10/17 12:14:40;;;;;;;7.50;5.60;;;;;;;;;;5073715;28;20482;-67
2022/10/17 12:17:26;;;;;;;9.67;5.83;;;;;;;;;;5074205;28;20909;-67
2022/10/17 12:20:15;;;;;;;6.10;5.37;;;;;;;;;;5073805;28;20865;-67
2022/10/17 12:22:47;;;;;;;9.60;5.50;;;;;;;;;;5074169;28;20444;-67
2022/10/17 12:25:18;;;;;;;10.87;5.30;;;;;;;;;;5074497;28;20574;-67
2022/10/17 12:27:46;;;;;;;7.53;5.30;;;;;;;;;;5073311;28;20519;-67
2022/10/17 12:30:19;;;;;;;10.37;5.40;;;;;;;;;;5073539;28;20472;-67
2022/10/17 12:32:57;;;;;;;7.00;5.40;;;;;;;;;;5073524;28;20506;-67
2022/10/17 12:35:27;;;;;;;6.00;5.30;;;;;;;;;;5073144;28;20447;-68
2022/10/17 12:38:02;;;;;;;10.80;5.57;;;;;;;;;;5073879;28;20468;-67
2022/10/17 12:40:49;;;;;;;5.57;4.80;;;;;;;;;;5073279;28;20966;-68
2022/10/17 12:43:35;;;;;;;5.47;5.00;;;;;;;;;;5073697;28;20482;-67
2022/10/17 12:46:03;;;;;;;13.63;5.30;;;;;;;;;;5073520;28;20441;-67
2022/10/17 12:48:48;;;;;;;6.57;5.30;;;;;;;;;;5073364;28;20444;-67
2022/10/17 12:51:18;;;;;;;5.83;5.23;;;;;;;;;;5073481;28;20444;-67
2022/10/17 12:53:50;;;;;;;9.70;5.97;;;;;;;;;;5073435;28;20824;-68
2022/10/17 12:56:19;;;;;;;10.73;5.50;;;;;;;;;;5073262;28;20428;-68
2022/10/17 12:58:47;;;;;;;10.20;5.60;;;;;;;;;;5072923;28;20929;-68
2022/10/17 13:01:17;;;;;;;8.80;6.13;;;;;;;;;;5073318;28;20440;-69
2022/10/17 13:03:46;;;;;;;6.60;5.90;;;;;;;;;;5073132;28;20447;-67
2022/10/17 13:06:16;;;;;;;6.80;5.40;;;;;;;;;;5073626;28;20444;-67
2022/10/17 13:08:46;;;;;;;11.33;6.13;;;;;;;;;;5073616;28;20444;-67
2022/10/17 13:11:14;;;;;;;6.87;5.73;;;;;;;;;;5073207;28;20447;-65
2022/10/17 13:13:43;;;;;;;8.13;6.60;;;;;;;;;;5076616;28;20528;-65
2022/10/17 13:16:10;;;;;;;6.90;5.57;;;;;;;;;;5078035;28;20546;-66
2022/10/17 13:18:37;;;;;;;9.30;6.30;;;;;;;;;;5077640;28;20450;-65
2022/10/17 13:21:06;;;;;;;6.30;5.70;;;;;;;;;;5077435;28;20440;-65
2022/10/17 13:23:34;;;;;;;7.67;6.23;;;;;;;;;;5077349;28;20444;-65
2022/10/17 13:26:07;;;;;;;8.30;6.60;;;;;;;;;;5076683;28;20803;-65
2022/10/17 13:28:34;;;;;;;14.70;6.60;;;;;;;;;;5076554;28;20457;-65
2022/10/17 13:31:02;;;;;;;6.57;5.90;;;;;;;;;;5076073;28;20449;-65
2022/10/17 13:33:31;;;;;;;9.70;6.37;;;;;;;;;;5075716;28;20485;-65
2022/10/17 13:35:59;;;;;;;8.03;6.93;;;;;;;;;;5075963;28;20535;-65
2022/10/17 13:38:29;;;;;;;15.27;6.27;;;;;;;;;;5075753;28;20958;-65
2022/10/17 13:40:56;;;;;;;7.00;6.30;;;;;;;;;;5075614;28;20455;-65
2022/10/17 13:43:25;;;;;;;11.97;6.23;;;;;;;;;;5075889;28;20458;-65
2022/10/17 13:45:53;;;;;;;7.40;6.73;;;;;;;;;;5076175;28;20594;-65
2022/10/17 13:48:21;;;;;;;14.50;7.23;;;;;;;;;;5076672;28;20871;-65
2022/10/17 13:50:50;;;;;;;7.80;6.73;;;;;;;;;;5076088;28;20500;-65
2022/10/17 13:53:19;;;;;;;9.13;8.23;;;;;;;;;;5076489;28;20480;-65
2022/10/17 13:55:56;;;;;;;17.70;7.67;;;;;;;;;;5076040;28;20526;-65
2022/10/17 13:58:26;;;;;;;7.90;7.17;;;;;;;;;;5077160;28;20440;-65
2022/10/17 14:00:53;;;;;;;8.57;6.97;;;;;;;;;;5075926;28;20447;-65
2022/10/17 14:03:21;;;;;;;8.70;7.90;;;;;;;;;;5075999;28;20941;-65
2022/10/17 14:06:03;;;;;;;11.20;7.20;;;;;;;;;;5075800;28;20452;-65
2022/10/17 14:08:30;;;;;;;8.50;7.20;;;;;;;;;;5075854;28;20535;-65
2022/10/17 14:10:59;;;;;;;10.67;6.60;;;;;;;;;;5075635;28;20536;-65
2022/10/17 14:13:30;;;;;;;8.00;6.90;;;;;;;;;;5075463;28;20494;-65
2022/10/17 14:15:58;;;;;;;8.33;6.93;;;;;;;;;;5075915;28;20515;-65
2022/10/17 14:18:27;;;;;;;7.73;6.93;;;;;;;;;;5075887;28;20544;-65
2022/10/17 14:20:54;;;;;;;8.63;7.77;;;;;;;;;;5075703;28;20448;-65
2022/10/17 14:23:30;;;;;;;10.27;9.17;;;;;;;;;;5074993;28;20440;-65
2022/10/17 14:26:05;;;;;;;13.13;7.13;;;;;;;;;;5075160;28;20456;-65
2022/10/17 14:28:34;;;;;;;10.00;7.90;;;;;;;;;;5075778;28;20426;-65
2022/10/17 14:31:12;;;;;;;8.43;7.60;;;;;;;;;;5075573;28;20439;-65
2022/10/17 14:33:43;;;;;;;8.00;7.20;;;;;;;;;;5076262;28;20468;-65
2022/10/17 14:36:10;;;;;;;8.60;6.80;;;;;;;;;;5075594;28;20555;-65
2022/10/17 14:38:38;;;;;;;12.97;7.70;;;;;;;;;;5075792;28;20444;-65
2022/10/17 14:41:07;;;;;;;10.73;7.30;;;;;;;;;;5075178;28;20486;-65